createdAt,value
2023-10-31T00:00:41.699Z,71.11
2023-10-31T00:03:11.869Z,71.09
2023-10-31T00:05:41.923Z,71.34
2023-10-31T00:08:11.818Z,71.27
2023-10-31T00:10:45.864Z,71.16
2023-10-31T00:13:15.747Z,71.11
2023-10-31T00:15:46.332Z,71.07
2023-10-31T00:18:16.521Z,70.97
2023-10-31T00:20:47.946Z,70.96
2023-10-31T00:23:17.785Z,71.11
2023-10-31T00:25:48.284Z,70.99
2023-10-31T00:28:18.284Z,71.02
2023-10-31T00:30:48.604Z,71.07
2023-10-31T00:33:18.425Z,71.33
2023-10-31T00:35:48.224Z,71.25
2023-10-31T00:38:18.074Z,71.26
2023-10-31T00:40:47.978Z,71.22
2023-10-31T00:43:17.794Z,71.28
2023-10-31T00:45:47.811Z,71.31
2023-10-31T00:48:17.802Z,71.22
2023-10-31T00:50:48.213Z,71.22
2023-10-31T00:53:18.493Z,71.17
2023-10-31T00:55:48.786Z,71.38
2023-10-31T00:58:18.612Z,71.36
2023-10-31T01:00:49.002Z,71.30
2023-10-31T01:03:19.074Z,71.56
2023-10-31T01:05:49.023Z,71.63
2023-10-31T01:08:21.965Z,71.69
2023-10-31T01:10:52.293Z,71.42
2023-10-31T01:13:22.410Z,71.31
2023-10-31T01:15:53.098Z,71.28
2023-10-31T01:18:22.917Z,71.22
2023-10-31T01:20:52.972Z,71.18
2023-10-31T01:23:24.002Z,71.23
2023-10-31T01:25:54.433Z,71.47
2023-10-31T01:28:24.329Z,71.18
2023-10-31T01:30:54.698Z,71.52
2023-10-31T01:33:24.700Z,71.70
2023-10-31T01:35:55.153Z,71.58
2023-10-31T01:38:25.011Z,71.54
2023-10-31T01:40:54.929Z,71.51
2023-10-31T01:43:35.097Z,71.70
2023-10-31T01:46:05.903Z,71.54
2023-10-31T01:48:36.236Z,71.61
2023-10-31T01:51:07.096Z,71.48
2023-10-31T01:53:38.013Z,71.52
2023-10-31T01:56:08.608Z,71.43
2023-10-31T01:58:39.582Z,71.52
2023-10-31T02:01:10.193Z,71.56
2023-10-31T02:03:40.199Z,71.36
2023-10-31T02:06:10.051Z,71.62
2023-10-31T02:08:40.131Z,71.34
2023-10-31T02:11:11.731Z,71.23
2023-10-31T02:13:41.756Z,71.01
2023-10-31T02:16:12.488Z,70.96
2023-10-31T02:18:42.554Z,70.82
2023-10-31T02:21:12.617Z,70.97
2023-10-31T02:23:42.604Z,70.97
2023-10-31T02:26:13.019Z,70.74
2023-10-31T02:28:43.851Z,70.82
2023-10-31T02:31:14.236Z,70.72
2023-10-31T02:33:44.282Z,70.69
2023-10-31T02:36:14.789Z,70.56
2023-10-31T02:38:44.911Z,70.39
2023-10-31T02:41:16.003Z,70.31
2023-10-31T02:43:46.603Z,70.29
2023-10-31T02:46:17.755Z,70.40
2023-10-31T02:48:47.790Z,70.27
2023-10-31T02:51:18.453Z,70.22
2023-10-31T02:53:48.472Z,70.12
2023-10-31T02:56:20.704Z,69.92
2023-10-31T02:58:50.997Z,70.04
2023-10-31T03:01:21.192Z,69.88
2023-10-31T03:03:51.090Z,70.10
2023-10-31T03:06:20.922Z,69.97
2023-10-31T03:08:50.992Z,69.90
2023-10-31T03:11:28.522Z,70.03
2023-10-31T03:13:58.837Z,69.73
2023-10-31T03:16:29.659Z,70.03
2023-10-31T03:19:00.379Z,70.00
2023-10-31T03:21:30.568Z,69.97
2023-10-31T03:24:01.112Z,70.02
2023-10-31T03:26:31.305Z,69.84
2023-10-31T03:29:01.583Z,70.01
2023-10-31T03:31:32.173Z,70.00
2023-10-31T03:34:02.184Z,70.10
2023-10-31T03:36:33.316Z,70.07
2023-10-31T03:39:03.816Z,69.87
2023-10-31T03:41:34.516Z,69.78
2023-10-31T03:44:04.641Z,69.95
2023-10-31T03:46:35.143Z,69.93
2023-10-31T03:49:05.289Z,69.88
2023-10-31T03:51:36.247Z,69.90
2023-10-31T03:54:06.393Z,70.05
2023-10-31T03:56:44.683Z,70.01
2023-10-31T03:59:14.770Z,69.95
2023-10-31T04:01:45.630Z,69.90
2023-10-31T04:04:15.778Z,69.88
2023-10-31T04:06:46.623Z,69.67
2023-10-31T04:09:16.488Z,69.88
2023-10-31T04:11:47.211Z,69.90
2023-10-31T04:14:17.507Z,69.85
2023-10-31T04:16:48.142Z,69.92
2023-10-31T04:19:18.374Z,70.02
2023-10-31T04:21:48.368Z,70.00
2023-10-31T04:24:18.361Z,69.90
2023-10-31T04:26:49.139Z,70.00
2023-10-31T04:29:19.221Z,69.90
2023-10-31T04:31:49.357Z,69.74
2023-10-31T04:34:19.248Z,69.66
2023-10-31T04:36:50.019Z,69.62
2023-10-31T04:39:20.270Z,69.38
2023-10-31T04:41:50.838Z,69.62
2023-10-31T04:44:20.986Z,69.62
2023-10-31T04:46:51.427Z,69.72
2023-10-31T04:49:21.968Z,70.05
2023-10-31T04:51:52.232Z,70.03
2023-10-31T04:54:22.338Z,70.19
2023-10-31T04:56:52.676Z,70.28
2023-10-31T04:59:22.549Z,70.20
2023-10-31T05:01:53.636Z,70.44
2023-10-31T05:04:23.871Z,70.61
2023-10-31T05:06:54.588Z,70.47
2023-10-31T05:09:24.865Z,70.65
2023-10-31T05:11:56.376Z,70.55
2023-10-31T05:14:26.611Z,70.65
2023-10-31T05:16:57.476Z,70.71
2023-10-31T05:19:27.777Z,70.82
2023-10-31T05:21:58.237Z,70.69
2023-10-31T05:24:28.263Z,70.74
2023-10-31T05:26:58.829Z,70.64
2023-10-31T05:29:29.288Z,70.75
2023-10-31T05:32:00.090Z,70.63
2023-10-31T05:34:30.434Z,70.46
2023-10-31T05:37:00.632Z,70.53
2023-10-31T05:39:30.685Z,70.26
2023-10-31T05:42:01.202Z,70.39
2023-10-31T05:44:31.133Z,70.20
2023-10-31T05:47:01.698Z,70.20
2023-10-31T05:49:31.736Z,70.21
2023-10-31T05:52:02.468Z,70.14
2023-10-31T05:54:32.293Z,70.17
2023-10-31T05:57:02.643Z,70.08
2023-10-31T05:59:33.557Z,70.05
2023-10-31T06:02:03.484Z,69.93
2023-10-31T06:04:33.565Z,69.85
2023-10-31T06:07:04.250Z,69.93
2023-10-31T06:09:34.950Z,69.77
2023-10-31T06:12:07.054Z,69.88
2023-10-31T06:14:38.459Z,69.78
2023-10-31T06:17:08.725Z,69.75
2023-10-31T06:19:38.655Z,69.70
2023-10-31T06:22:08.824Z,69.67
2023-10-31T06:24:38.657Z,69.74
2023-10-31T06:27:09.054Z,69.67
2023-10-31T06:29:50.133Z,69.91
2023-10-31T06:32:29.374Z,69.60
2023-10-31T06:34:59.667Z,69.34
2023-10-31T06:37:30.041Z,69.08
2023-10-31T06:40:00.235Z,69.21
2023-10-31T06:42:31.841Z,69.08
2023-10-31T06:45:01.616Z,68.95
2023-10-31T06:47:32.185Z,68.94
2023-10-31T06:50:02.462Z,68.92
2023-10-31T06:52:32.385Z,69.00
2023-10-31T06:55:02.430Z,69.09
2023-10-31T06:57:32.783Z,68.95
2023-10-31T07:00:02.878Z,69.03
2023-10-31T07:02:33.283Z,68.95
2023-10-31T07:05:04.760Z,68.87
2023-10-31T07:07:35.242Z,68.88
2023-10-31T07:10:06.013Z,68.68
2023-10-31T07:12:35.798Z,68.92
2023-10-31T07:15:06.554Z,68.82
2023-10-31T07:17:37.239Z,69.00
2023-10-31T07:20:08.120Z,68.87
2023-10-31T07:22:38.144Z,68.82
2023-10-31T07:25:08.624Z,68.68
2023-10-31T07:27:38.673Z,68.51
2023-10-31T07:30:08.947Z,68.97
2023-10-31T07:32:40.392Z,68.56
2023-10-31T07:35:10.972Z,68.50
2023-10-31T07:37:41.505Z,68.51
2023-10-31T07:40:12.567Z,68.58
2023-10-31T07:42:43.038Z,68.41
2023-10-31T07:45:13.408Z,68.43
2023-10-31T07:47:43.780Z,68.25
2023-10-31T07:50:14.900Z,68.18
2023-10-31T07:52:47.647Z,68.20
2023-10-31T07:55:17.853Z,68.24
2023-10-31T07:57:48.938Z,68.11
2023-10-31T08:00:18.921Z,68.04
2023-10-31T08:02:49.433Z,68.11
2023-10-31T08:05:19.394Z,68.05
2023-10-31T08:07:49.950Z,68.10
2023-10-31T08:10:20.304Z,67.90
2023-10-31T08:12:50.792Z,67.72
2023-10-31T08:15:20.961Z,67.89
2023-10-31T08:17:51.031Z,67.97
2023-10-31T08:20:21.416Z,67.82
2023-10-31T08:22:51.518Z,67.88
2023-10-31T08:25:21.596Z,67.80
2023-10-31T08:27:51.868Z,67.62
2023-10-31T08:30:21.988Z,67.40
2023-10-31T08:32:53.911Z,67.32
2023-10-31T08:35:23.760Z,67.22
2023-10-31T08:37:55.055Z,67.32
2023-10-31T08:40:25.326Z,67.27
2023-10-31T08:42:56.174Z,67.04
2023-10-31T08:45:26.094Z,67.04
2023-10-31T08:47:56.434Z,66.68
2023-10-31T08:50:26.309Z,66.74
2023-10-31T08:52:56.981Z,66.79
2023-10-31T08:55:26.844Z,66.70
2023-10-31T08:57:57.297Z,66.51
2023-10-31T09:00:29.448Z,66.53
2023-10-31T09:02:59.947Z,66.48
2023-10-31T09:05:29.934Z,66.30
2023-10-31T09:08:00.331Z,66.37
2023-10-31T09:10:30.217Z,66.49
2023-10-31T09:12:59.994Z,66.12
2023-10-31T09:15:29.804Z,66.21
2023-10-31T09:17:59.644Z,66.19
2023-10-31T09:20:30.882Z,66.19
2023-10-31T09:23:01.493Z,66.14
2023-10-31T09:25:31.657Z,66.29
2023-10-31T09:28:04.429Z,66.39
2023-10-31T09:30:34.304Z,66.07
2023-10-31T09:33:06.726Z,66.23
2023-10-31T09:35:36.709Z,66.22
2023-10-31T09:38:07.414Z,66.36
2023-10-31T09:40:42.404Z,66.29
2023-10-31T09:43:12.753Z,66.21
2023-10-31T09:45:42.885Z,66.18
2023-10-31T09:48:13.561Z,66.56
2023-10-31T09:50:44.314Z,66.38
2023-10-31T09:53:17.774Z,66.39
2023-10-31T09:55:47.991Z,66.48
2023-10-31T09:58:18.465Z,66.86
2023-10-31T10:00:48.384Z,66.63
2023-10-31T10:03:19.937Z,66.83
2023-10-31T10:05:50.744Z,67.08
2023-10-31T10:08:21.582Z,67.33
2023-10-31T10:10:52.764Z,67.61
2023-10-31T10:13:23.500Z,68.20
2023-10-31T10:15:55.115Z,68.62
2023-10-31T10:18:30.231Z,69.22
2023-10-31T10:21:02.293Z,69.64
2023-10-31T10:23:36.390Z,70.17
2023-10-31T10:26:06.752Z,70.73
2023-10-31T10:28:37.675Z,71.21
2023-10-31T10:31:07.683Z,71.26
2023-10-31T10:33:40.114Z,71.30
2023-10-31T10:36:11.700Z,71.85
2023-10-31T10:38:44.521Z,72.00
2023-10-31T10:41:17.353Z,72.40
2023-10-31T10:43:48.724Z,72.42
2023-10-31T10:46:21.031Z,72.87
2023-10-31T10:48:55.505Z,73.08
2023-10-31T10:51:46.926Z,74.06
2023-10-31T10:54:25.884Z,73.70
2023-10-31T10:56:59.964Z,74.02
2023-10-31T10:59:44.215Z,75.58
2023-10-31T11:02:15.626Z,74.63
2023-10-31T11:04:45.897Z,75.08
2023-10-31T11:07:18.860Z,75.15
2023-10-31T11:09:49.986Z,75.61
2023-10-31T11:12:20.918Z,75.62
2023-10-31T11:14:51.241Z,75.92
2023-10-31T11:17:33.158Z,77.28
2023-10-31T11:20:05.098Z,76.71
2023-10-31T11:22:41.645Z,77.33
2023-10-31T11:25:31.501Z,78.21
2023-10-31T11:28:17.225Z,78.35
2023-10-31T11:30:49.953Z,77.55
2023-10-31T11:33:22.648Z,77.67
2023-10-31T11:36:04.883Z,78.19
2023-10-31T11:38:39.232Z,77.98
2023-10-31T11:41:10.511Z,77.75
2023-10-31T11:43:40.663Z,78.29
2023-10-31T11:46:26.260Z,79.87
2023-10-31T11:48:57.856Z,78.37
2023-10-31T11:51:28.883Z,78.73
2023-10-31T11:54:00.788Z,78.89
2023-10-31T11:56:31.215Z,78.73
2023-10-31T11:59:05.662Z,78.91
2023-10-31T12:01:46.100Z,79.18
2023-10-31T12:04:24.529Z,78.75
2023-10-31T12:06:59.943Z,78.72
2023-10-31T12:09:31.467Z,78.40
2023-10-31T12:12:04.272Z,78.75
2023-10-31T12:14:34.671Z,78.51
2023-10-31T12:17:06.108Z,78.53
2023-10-31T12:19:36.016Z,78.85
2023-10-31T12:22:14.774Z,79.12
2023-10-31T12:24:44.708Z,78.71
2023-10-31T12:27:15.686Z,78.54
2023-10-31T12:29:45.704Z,78.68
2023-10-31T12:32:15.623Z,78.43
2023-10-31T12:34:45.422Z,78.65
2023-10-31T12:37:15.889Z,78.73
2023-10-31T12:39:50.994Z,78.52
2023-10-31T12:42:22.629Z,78.57
2023-10-31T12:44:52.550Z,78.16
2023-10-31T12:47:23.539Z,77.88
2023-10-31T12:50:13.322Z,78.55
2023-10-31T12:52:47.585Z,77.80
2023-10-31T12:55:22.202Z,77.63
2023-10-31T12:57:53.103Z,77.94
2023-10-31T13:00:31.312Z,79.68
2023-10-31T13:03:03.447Z,79.31
2023-10-31T13:05:34.321Z,79.00
2023-10-31T13:08:07.370Z,79.26
2023-10-31T13:10:37.482Z,79.36
2023-10-31T13:13:07.301Z,79.21
2023-10-31T13:15:39.012Z,78.74
2023-10-31T13:18:12.322Z,78.92
2023-10-31T13:20:43.267Z,78.33
2023-10-31T13:23:13.436Z,78.18
2023-10-31T13:25:43.504Z,77.90
2023-10-31T13:28:15.178Z,77.69
2023-10-31T13:30:46.882Z,77.38
2023-10-31T13:33:16.781Z,77.11
2023-10-31T13:35:47.078Z,76.31
2023-10-31T13:38:17.525Z,76.62
2023-10-31T13:40:47.544Z,76.34
2023-10-31T13:43:18.159Z,76.17
2023-10-31T13:45:47.979Z,75.94
2023-10-31T13:48:17.794Z,76.00
2023-10-31T13:50:47.764Z,75.77
2023-10-31T13:53:17.960Z,75.45
2023-10-31T13:55:47.854Z,75.59
2023-10-31T13:58:18.219Z,75.63
2023-10-31T14:00:48.166Z,75.61
2023-10-31T14:03:19.166Z,75.65
2023-10-31T14:05:49.242Z,75.33
2023-10-31T14:08:21.056Z,75.29
2023-10-31T14:10:51.751Z,75.23
2023-10-31T14:13:22.087Z,75.33
2023-10-31T14:15:51.991Z,75.17
2023-10-31T14:18:22.279Z,75.24
2023-10-31T14:20:53.121Z,75.22
2023-10-31T14:23:22.959Z,75.00
2023-10-31T14:25:52.759Z,75.06
2023-10-31T14:28:22.618Z,75.10
2023-10-31T14:30:53.437Z,74.75
2023-10-31T14:33:24.674Z,74.65
2023-10-31T14:35:54.602Z,74.52
2023-10-31T14:38:24.994Z,74.80
2023-10-31T14:40:54.952Z,74.59
2023-10-31T14:43:24.815Z,74.06
2023-10-31T14:45:55.577Z,74.06
2023-10-31T14:48:26.242Z,74.23
2023-10-31T14:50:58.109Z,73.81
2023-10-31T14:53:28.464Z,73.70
2023-10-31T14:55:58.388Z,73.92
2023-10-31T14:58:28.717Z,73.75
2023-10-31T15:00:58.569Z,73.90
2023-10-31T15:03:28.580Z,73.47
2023-10-31T15:05:59.337Z,73.43
2023-10-31T15:08:29.293Z,73.43
2023-10-31T15:10:59.203Z,73.25
2023-10-31T15:13:29.021Z,73.32
2023-10-31T15:15:58.945Z,73.30
2023-10-31T15:18:28.917Z,73.15
2023-10-31T15:20:58.945Z,73.29
2023-10-31T15:23:31.225Z,73.01
2023-10-31T15:26:01.890Z,72.78
2023-10-31T15:28:32.349Z,72.91
2023-10-31T15:31:02.232Z,73.00
2023-10-31T15:33:32.481Z,73.27
2023-10-31T15:36:02.620Z,73.12
2023-10-31T15:38:32.603Z,73.22
2023-10-31T15:41:10.950Z,73.57
2023-10-31T15:43:46.614Z,73.34
2023-10-31T15:46:16.723Z,73.31
2023-10-31T15:48:47.285Z,73.00
2023-10-31T15:51:17.236Z,73.14
2023-10-31T15:53:47.856Z,72.93
2023-10-31T15:56:17.797Z,72.78
2023-10-31T15:58:48.259Z,72.59
2023-10-31T16:01:18.196Z,72.59
2023-10-31T16:03:48.805Z,72.44
2023-10-31T16:06:18.749Z,72.22
2023-10-31T16:08:48.673Z,72.28
2023-10-31T16:11:18.525Z,71.94
2023-10-31T16:13:49.026Z,72.01
2023-10-31T16:16:19.197Z,71.96
2023-10-31T16:18:49.723Z,71.52
2023-10-31T16:21:23.583Z,70.40
2023-10-31T16:23:54.251Z,71.33
2023-10-31T16:26:24.198Z,71.42
2023-10-31T16:28:54.483Z,70.93
2023-10-31T16:31:25.052Z,70.89
2023-10-31T16:33:54.897Z,70.79
2023-10-31T16:36:25.877Z,70.40
2023-10-31T16:38:56.257Z,70.10
2023-10-31T16:41:27.050Z,69.78
2023-10-31T16:43:57.775Z,69.46
2023-10-31T16:46:27.899Z,69.11
2023-10-31T16:48:57.956Z,69.10
2023-10-31T16:51:28.266Z,68.62
2023-10-31T16:53:59.446Z,67.98
2023-10-31T16:56:29.331Z,68.15
2023-10-31T16:59:01.670Z,68.01
2023-10-31T17:01:31.958Z,67.77
2023-10-31T17:04:01.944Z,67.64
2023-10-31T17:06:31.874Z,67.50
2023-10-31T17:09:02.304Z,67.71
2023-10-31T17:11:32.276Z,67.39
2023-10-31T17:14:04.125Z,67.49
2023-10-31T17:16:34.061Z,67.31
2023-10-31T17:19:04.452Z,67.28
2023-10-31T17:21:34.306Z,67.15
2023-10-31T17:24:04.528Z,67.11
2023-10-31T17:26:34.484Z,67.21
2023-10-31T17:29:04.688Z,67.23
2023-10-31T17:31:36.042Z,67.07
2023-10-31T17:34:05.983Z,66.93
2023-10-31T17:36:35.878Z,66.68
2023-10-31T17:39:05.775Z,66.43
2023-10-31T17:41:36.101Z,66.22
2023-10-31T17:44:06.185Z,65.90
2023-10-31T17:46:36.046Z,65.83
2023-10-31T17:49:07.946Z,65.50
2023-10-31T17:51:42.637Z,65.06
2023-10-31T17:54:13.731Z,65.39
2023-10-31T17:56:43.883Z,65.14
2023-10-31T17:59:13.811Z,65.05
2023-10-31T18:01:43.949Z,65.02
2023-10-31T18:04:14.513Z,64.82
2023-10-31T18:06:44.959Z,65.05
2023-10-31T18:09:15.434Z,64.98
2023-10-31T18:11:45.393Z,64.95
2023-10-31T18:14:15.851Z,64.85
2023-10-31T18:16:45.952Z,64.47
2023-10-31T18:19:16.262Z,64.55
2023-10-31T18:21:46.678Z,64.65
2023-10-31T18:24:17.055Z,64.56
2023-10-31T18:26:46.942Z,64.57
2023-10-31T18:29:17.419Z,64.55
2023-10-31T18:31:47.917Z,64.44
2023-10-31T18:34:18.234Z,64.58
2023-10-31T18:36:48.497Z,64.74
2023-10-31T18:39:18.941Z,64.84
2023-10-31T18:41:59.818Z,64.60
2023-10-31T18:44:46.065Z,64.67
2023-10-31T18:47:23.910Z,64.70
2023-10-31T18:49:53.904Z,64.92
2023-10-31T18:52:23.819Z,64.88
2023-10-31T18:54:56.020Z,64.70
2023-10-31T18:57:26.502Z,64.66
2023-10-31T18:59:58.407Z,64.78
2023-10-31T19:02:28.641Z,64.59
2023-10-31T19:04:58.857Z,65.16
2023-10-31T19:07:28.691Z,64.95
2023-10-31T19:09:58.471Z,64.96
2023-10-31T19:12:28.360Z,64.89
2023-10-31T19:14:58.261Z,65.26
2023-10-31T19:17:28.107Z,65.10
2023-10-31T19:19:57.961Z,65.35
2023-10-31T19:22:27.833Z,65.16
2023-10-31T19:24:57.706Z,65.44
2023-10-31T19:27:27.496Z,65.58
2023-10-31T19:29:59.087Z,65.62
2023-10-31T19:32:29.099Z,65.52
2023-10-31T19:34:59.563Z,65.49
2023-10-31T19:37:29.486Z,65.54
2023-10-31T19:39:59.407Z,65.36
2023-10-31T19:42:29.243Z,65.38
2023-10-31T19:44:59.216Z,65.34
2023-10-31T19:47:29.285Z,65.52
2023-10-31T19:49:59.348Z,65.46
2023-10-31T19:52:29.209Z,65.66
2023-10-31T19:54:59.090Z,65.48
2023-10-31T19:57:28.936Z,65.54
2023-10-31T19:59:58.815Z,65.55
2023-10-31T20:02:28.710Z,65.38
2023-10-31T20:04:58.618Z,65.41
2023-10-31T20:07:28.552Z,65.48
2023-10-31T20:09:58.916Z,65.51
2023-10-31T20:12:28.981Z,65.43
2023-10-31T20:15:02.007Z,65.40
2023-10-31T20:17:33.953Z,65.60
2023-10-31T20:20:07.938Z,65.53
2023-10-31T20:22:38.170Z,65.34
2023-10-31T20:25:09.659Z,65.45
2023-10-31T20:27:39.825Z,65.44
2023-10-31T20:30:10.407Z,65.40
2023-10-31T20:32:40.571Z,65.31
2023-10-31T20:35:11.026Z,65.37
2023-10-31T20:37:41.288Z,65.55
2023-10-31T20:40:11.840Z,65.45
2023-10-31T20:42:42.154Z,65.42
2023-10-31T20:45:13.327Z,65.58
2023-10-31T20:47:43.513Z,65.51
2023-10-31T20:50:15.674Z,65.46
2023-10-31T20:52:45.818Z,65.53
2023-10-31T20:55:17.853Z,65.36
2023-10-31T20:57:47.827Z,65.39
2023-10-31T21:00:21.143Z,65.28
2023-10-31T21:02:51.230Z,65.35
2023-10-31T21:05:22.405Z,65.72
2023-10-31T21:07:52.624Z,65.61
2023-10-31T21:10:23.698Z,65.71
2023-10-31T21:12:54.020Z,65.83
2023-10-31T21:15:24.944Z,65.98
2023-10-31T21:17:55.136Z,65.89
2023-10-31T21:20:25.795Z,65.95
2023-10-31T21:22:57.338Z,66.03
2023-10-31T21:25:28.205Z,66.14
2023-10-31T21:27:58.629Z,66.40
2023-10-31T21:30:29.977Z,66.43
2023-10-31T21:33:00.316Z,66.41
2023-10-31T21:35:31.152Z,66.35
2023-10-31T21:38:01.185Z,66.73
2023-10-31T21:40:31.086Z,66.87
2023-10-31T21:43:00.950Z,66.62
2023-10-31T21:45:30.860Z,66.47
2023-10-31T21:48:00.811Z,65.82
2023-10-31T21:50:30.703Z,65.91
2023-10-31T21:53:00.762Z,66.04
2023-10-31T21:55:30.862Z,65.71
2023-10-31T21:58:01.235Z,65.16
2023-10-31T22:00:31.106Z,65.69
2023-10-31T22:03:01.550Z,65.27
2023-10-31T22:05:31.991Z,65.46
2023-10-31T22:08:02.089Z,65.37
2023-10-31T22:10:32.335Z,65.25
2023-10-31T22:13:02.313Z,65.41
2023-10-31T22:15:32.784Z,64.90
2023-10-31T22:18:02.997Z,64.81
2023-10-31T22:20:33.524Z,65.24
2023-10-31T22:23:03.438Z,65.11
2023-10-31T22:25:35.310Z,65.07
2023-10-31T22:28:05.534Z,64.95
2023-10-31T22:30:37.984Z,64.68
2023-10-31T22:33:07.974Z,64.61
2023-10-31T22:35:38.841Z,64.36
2023-10-31T22:38:08.767Z,64.33
2023-10-31T22:40:39.225Z,64.64
2023-10-31T22:43:09.137Z,64.78
2023-10-31T22:45:39.740Z,64.82
2023-10-31T22:48:10.066Z,64.72
2023-10-31T22:50:41.245Z,64.86
2023-10-31T22:53:11.742Z,64.75
2023-10-31T22:55:43.164Z,64.83
2023-10-31T22:58:13.048Z,65.01
2023-10-31T23:00:43.082Z,64.76
2023-10-31T23:03:13.011Z,64.58
2023-10-31T23:05:45.038Z,64.66
2023-10-31T23:08:15.334Z,64.77
2023-10-31T23:10:46.116Z,64.66
2023-10-31T23:13:16.364Z,64.50
2023-10-31T23:15:46.929Z,64.23
2023-10-31T23:18:16.879Z,64.24
2023-10-31T23:20:47.271Z,63.97
2023-10-31T23:23:17.161Z,64.29
2023-10-31T23:25:48.047Z,63.48
2023-10-31T23:28:17.933Z,64.22
2023-10-31T23:30:54.792Z,63.94
2023-10-31T23:33:29.724Z,64.04
2023-10-31T23:36:01.109Z,64.34
2023-10-31T23:38:31.034Z,64.03
2023-10-31T23:41:01.595Z,63.76
2023-10-31T23:43:31.509Z,64.25
2023-10-31T23:46:01.387Z,63.96
2023-10-31T23:48:31.183Z,64.10
2023-10-31T23:51:00.997Z,64.03
2023-10-31T23:53:30.933Z,63.71
2023-10-31T23:56:00.824Z,63.72
2023-10-31T23:58:30.632Z,64.04
